sensor_id;sensor_type;location;lat;lon;timestamp;P1;durP1;ratioP1;P2;durP2;ratioP2
5507;SDS011;2776;51.046;6.772;2023-10-09T00:01:01;17.87;;;9.70;;
5507;SDS011;2776;51.046;6.772;2023-10-09T00:03:30;17.10;;;10.10;;
5507;SDS011;2776;51.046;6.772;2023-10-09T00:05:58;16.67;;;10.90;;
5507;SDS011;2776;51.046;6.772;2023-10-09T00:08:26;18.13;;;9.73;;
5507;SDS011;2776;51.046;6.772;2023-10-09T00:10:55;13.40;;;9.53;;
5507;SDS011;2776;51.046;6.772;2023-10-09T00:13:24;16.13;;;9.07;;
5507;SDS011;2776;51.046;6.772;2023-10-09T00:15:55;15.13;;;9.87;;
5507;SDS011;2776;51.046;6.772;2023-10-09T00:18:26;15.93;;;9.93;;
5507;SDS011;2776;51.046;6.772;2023-10-09T00:20:54;17.87;;;9.37;;
5507;SDS011;2776;51.046;6.772;2023-10-09T00:23:27;16.07;;;9.30;;
5507;SDS011;2776;51.046;6.772;2023-10-09T00:25:56;17.47;;;9.53;;
5507;SDS011;2776;51.046;6.772;2023-10-09T00:28:35;19.57;;;10.37;;
5507;SDS011;2776;51.046;6.772;2023-10-09T00:31:03;15.43;;;9.23;;
5507;SDS011;2776;51.046;6.772;2023-10-09T00:33:31;14.10;;;8.40;;
5507;SDS011;2776;51.046;6.772;2023-10-09T00:36:01;14.70;;;9.53;;
5507;SDS011;2776;51.046;6.772;2023-10-09T00:38:35;16.17;;;8.27;;
5507;SDS011;2776;51.046;6.772;2023-10-09T00:41:09;16.40;;;9.17;;
5507;SDS011;2776;51.046;6.772;2023-10-09T00:43:44;15.63;;;9.50;;
5507;SDS011;2776;51.046;6.772;2023-10-09T00:46:11;19.50;;;10.50;;
5507;SDS011;2776;51.046;6.772;2023-10-09T00:48:49;19.07;;;9.20;;
5507;SDS011;2776;51.046;6.772;2023-10-09T00:51:20;14.03;;;8.93;;
5507;SDS011;2776;51.046;6.772;2023-10-09T00:53:51;16.17;;;9.10;;
5507;SDS011;2776;51.046;6.772;2023-10-09T00:56:20;16.73;;;9.50;;
5507;SDS011;2776;51.046;6.772;2023-10-09T00:59:03;12.37;;;8.20;;
5507;SDS011;2776;51.046;6.772;2023-10-09T01:01:33;13.73;;;8.30;;
5507;SDS011;2776;51.046;6.772;2023-10-09T01:04:02;15.27;;;8.40;;
5507;SDS011;2776;51.046;6.772;2023-10-09T01:06:41;11.63;;;8.77;;
5507;SDS011;2776;51.046;6.772;2023-10-09T01:09:12;14.67;;;9.73;;
5507;SDS011;2776;51.046;6.772;2023-10-09T01:11:39;15.97;;;9.57;;
5507;SDS011;2776;51.046;6.772;2023-10-09T01:14:14;16.23;;;9.00;;
5507;SDS011;2776;51.046;6.772;2023-10-09T01:16:41;16.07;;;9.43;;
5507;SDS011;2776;51.046;6.772;2023-10-09T01:19:09;22.13;;;11.10;;
5507;SDS011;2776;51.046;6.772;2023-10-09T01:21:49;15.60;;;9.07;;
5507;SDS011;2776;51.046;6.772;2023-10-09T01:24:18;18.40;;;9.53;;
5507;SDS011;2776;51.046;6.772;2023-10-09T01:26:46;20.27;;;9.90;;
5507;SDS011;2776;51.046;6.772;2023-10-09T01:29:15;17.47;;;8.40;;
5507;SDS011;2776;51.046;6.772;2023-10-09T01:31:44;17.60;;;8.97;;
5507;SDS011;2776;51.046;6.772;2023-10-09T01:34:20;16.13;;;9.10;;
5507;SDS011;2776;51.046;6.772;2023-10-09T01:36:49;13.83;;;8.70;;
5507;SDS011;2776;51.046;6.772;2023-10-09T01:39:21;13.27;;;8.37;;
5507;SDS011;2776;51.046;6.772;2023-10-09T01:41:51;14.47;;;7.90;;
5507;SDS011;2776;51.046;6.772;2023-10-09T01:44:24;14.53;;;8.07;;
5507;SDS011;2776;51.046;6.772;2023-10-09T01:46:52;12.83;;;7.80;;
5507;SDS011;2776;51.046;6.772;2023-10-09T01:49:22;13.70;;;8.17;;
5507;SDS011;2776;51.046;6.772;2023-10-09T01:51:56;15.80;;;9.07;;
5507;SDS011;2776;51.046;6.772;2023-10-09T01:54:29;17.43;;;8.23;;
5507;SDS011;2776;51.046;6.772;2023-10-09T01:57:02;16.20;;;8.60;;
5507;SDS011;2776;51.046;6.772;2023-10-09T01:59:34;17.00;;;8.53;;
5507;SDS011;2776;51.046;6.772;2023-10-09T02:02:03;12.40;;;7.70;;
5507;SDS011;2776;51.046;6.772;2023-10-09T02:04:40;14.87;;;7.47;;
5507;SDS011;2776;51.046;6.772;2023-10-09T02:07:07;13.20;;;8.13;;
5507;SDS011;2776;51.046;6.772;2023-10-09T02:09:35;10.97;;;6.73;;
5507;SDS011;2776;51.046;6.772;2023-10-09T02:12:12;9.37;;;7.53;;
5507;SDS011;2776;51.046;6.772;2023-10-09T02:14:38;11.77;;;7.00;;
5507;SDS011;2776;51.046;6.772;2023-10-09T02:17:07;11.10;;;7.10;;
5507;SDS011;2776;51.046;6.772;2023-10-09T02:19:42;11.17;;;7.33;;
5507;SDS011;2776;51.046;6.772;2023-10-09T02:22:13;14.03;;;7.93;;
5507;SDS011;2776;51.046;6.772;2023-10-09T02:24:42;10.90;;;6.43;;
5507;SDS011;2776;51.046;6.772;2023-10-09T02:27:22;13.33;;;7.43;;
5507;SDS011;2776;51.046;6.772;2023-10-09T02:30:07;11.60;;;6.43;;
5507;SDS011;2776;51.046;6.772;2023-10-09T02:32:41;12.40;;;6.90;;
5507;SDS011;2776;51.046;6.772;2023-10-09T02:35:09;10.43;;;6.83;;
5507;SDS011;2776;51.046;6.772;2023-10-09T02:37:45;10.47;;;6.70;;
5507;SDS011;2776;51.046;6.772;2023-10-09T02:40:14;9.47;;;7.20;;
5507;SDS011;2776;51.046;6.772;2023-10-09T02:42:49;8.77;;;6.57;;
5507;SDS011;2776;51.046;6.772;2023-10-09T02:45:16;9.83;;;6.57;;
5507;SDS011;2776;51.046;6.772;2023-10-09T02:47:44;10.00;;;6.13;;
5507;SDS011;2776;51.046;6.772;2023-10-09T02:50:13;7.40;;;5.97;;
5507;SDS011;2776;51.046;6.772;2023-10-09T02:52:46;12.30;;;6.10;;
5507;SDS011;2776;51.046;6.772;2023-10-09T02:55:18;9.87;;;5.63;;
5507;SDS011;2776;51.046;6.772;2023-10-09T02:57:51;11.27;;;5.67;;
5507;SDS011;2776;51.046;6.772;2023-10-09T03:00:29;10.27;;;5.67;;
5507;SDS011;2776;51.046;6.772;2023-10-09T03:02:57;7.77;;;5.30;;
5507;SDS011;2776;51.046;6.772;2023-10-09T03:05:24;8.13;;;5.47;;
5507;SDS011;2776;51.046;6.772;2023-10-09T03:07:52;9.17;;;5.43;;
5507;SDS011;2776;51.046;6.772;2023-10-09T03:10:21;9.00;;;6.13;;
5507;SDS011;2776;51.046;6.772;2023-10-09T03:12:48;11.37;;;7.07;;
5507;SDS011;2776;51.046;6.772;2023-10-09T03:15:18;6.67;;;5.33;;
5507;SDS011;2776;51.046;6.772;2023-10-09T03:17:45;10.73;;;5.67;;
5507;SDS011;2776;51.046;6.772;2023-10-09T03:20:13;9.47;;;5.80;;
5507;SDS011;2776;51.046;6.772;2023-10-09T03:22:42;12.40;;;6.80;;
5507;SDS011;2776;51.046;6.772;2023-10-09T03:25:10;8.77;;;5.70;;
5507;SDS011;2776;51.046;6.772;2023-10-09T03:27:39;9.13;;;5.60;;
5507;SDS011;2776;51.046;6.772;2023-10-09T03:30:10;10.57;;;6.20;;
5507;SDS011;2776;51.046;6.772;2023-10-09T03:32:42;8.23;;;5.50;;
5507;SDS011;2776;51.046;6.772;2023-10-09T03:35:09;10.23;;;5.80;;
5507;SDS011;2776;51.046;6.772;2023-10-09T03:37:39;10.13;;;6.50;;
5507;SDS011;2776;51.046;6.772;2023-10-09T03:40:06;8.53;;;5.20;;
5507;SDS011;2776;51.046;6.772;2023-10-09T03:42:41;9.47;;;6.13;;
5507;SDS011;2776;51.046;6.772;2023-10-09T03:45:08;9.80;;;6.03;;
5507;SDS011;2776;51.046;6.772;2023-10-09T03:47:49;9.17;;;5.93;;
5507;SDS011;2776;51.046;6.772;2023-10-09T03:50:21;7.97;;;5.93;;
5507;SDS011;2776;51.046;6.772;2023-10-09T03:52:51;8.50;;;5.87;;
5507;SDS011;2776;51.046;6.772;2023-10-09T03:55:20;9.47;;;5.40;;
5507;SDS011;2776;51.046;6.772;2023-10-09T03:57:48;8.00;;;5.50;;
5507;SDS011;2776;51.046;6.772;2023-10-09T04:00:15;9.63;;;5.13;;
5507;SDS011;2776;51.046;6.772;2023-10-09T04:02:52;7.33;;;5.33;;
5507;SDS011;2776;51.046;6.772;2023-10-09T04:05:19;10.20;;;5.73;;
5507;SDS011;2776;51.046;6.772;2023-10-09T04:07:46;10.33;;;5.77;;
5507;SDS011;2776;51.046;6.772;2023-10-09T04:10:14;8.33;;;5.60;;
5507;SDS011;2776;51.046;6.772;2023-10-09T04:12:59;13.73;;;8.80;;
5507;SDS011;2776;51.046;6.772;2023-10-09T04:15:28;11.93;;;7.60;;
5507;SDS011;2776;51.046;6.772;2023-10-09T04:18:00;7.87;;;5.50;;
5507;SDS011;2776;51.046;6.772;2023-10-09T04:20:30;8.07;;;5.60;;
5507;SDS011;2776;51.046;6.772;2023-10-09T04:23:11;9.70;;;6.17;;
5507;SDS011;2776;51.046;6.772;2023-10-09T04:25:41;7.83;;;5.43;;
5507;SDS011;2776;51.046;6.772;2023-10-09T04:28:08;8.50;;;4.87;;
5507;SDS011;2776;51.046;6.772;2023-10-09T04:30:44;8.10;;;5.73;;
5507;SDS011;2776;51.046;6.772;2023-10-09T04:33:18;9.43;;;6.17;;
5507;SDS011;2776;51.046;6.772;2023-10-09T04:36:00;8.27;;;5.70;;
5507;SDS011;2776;51.046;6.772;2023-10-09T04:38:47;9.07;;;5.57;;
5507;SDS011;2776;51.046;6.772;2023-10-09T04:41:40;10.20;;;5.63;;
5507;SDS011;2776;51.046;6.772;2023-10-09T04:44:18;11.10;;;6.23;;
5507;SDS011;2776;51.046;6.772;2023-10-09T04:46:48;8.40;;;5.50;;
5507;SDS011;2776;51.046;6.772;2023-10-09T04:49:30;8.20;;;5.10;;
5507;SDS011;2776;51.046;6.772;2023-10-09T04:52:10;8.17;;;4.67;;
5507;SDS011;2776;51.046;6.772;2023-10-09T04:54:43;8.80;;;5.43;;
5507;SDS011;2776;51.046;6.772;2023-10-09T04:57:30;8.30;;;5.30;;
5507;SDS011;2776;51.046;6.772;2023-10-09T05:00:05;6.03;;;5.43;;
5507;SDS011;2776;51.046;6.772;2023-10-09T05:02:47;6.77;;;4.83;;
5507;SDS011;2776;51.046;6.772;2023-10-09T05:05:19;7.70;;;5.30;;
5507;SDS011;2776;51.046;6.772;2023-10-09T05:08:13;7.60;;;5.40;;
5507;SDS011;2776;51.046;6.772;2023-10-09T05:10:44;7.67;;;5.70;;
5507;SDS011;2776;51.046;6.772;2023-10-09T05:13:26;11.07;;;5.80;;
5507;SDS011;2776;51.046;6.772;2023-10-09T05:16:09;8.50;;;5.07;;
5507;SDS011;2776;51.046;6.772;2023-10-09T05:18:44;7.83;;;5.17;;
5507;SDS011;2776;51.046;6.772;2023-10-09T05:21:21;7.57;;;5.67;;
5507;SDS011;2776;51.046;6.772;2023-10-09T05:24:09;7.77;;;5.03;;
5507;SDS011;2776;51.046;6.772;2023-10-09T05:26:48;8.47;;;4.63;;
5507;SDS011;2776;51.046;6.772;2023-10-09T05:29:39;9.37;;;5.23;;
5507;SDS011;2776;51.046;6.772;2023-10-09T05:32:25;8.53;;;4.87;;
5507;SDS011;2776;51.046;6.772;2023-10-09T05:35:00;8.27;;;5.13;;
5507;SDS011;2776;51.046;6.772;2023-10-09T05:37:40;10.37;;;5.43;;
5507;SDS011;2776;51.046;6.772;2023-10-09T05:40:09;9.03;;;4.80;;
5507;SDS011;2776;51.046;6.772;2023-10-09T05:42:48;8.00;;;4.67;;
5507;SDS011;2776;51.046;6.772;2023-10-09T05:45:24;7.40;;;4.93;;
5507;SDS011;2776;51.046;6.772;2023-10-09T05:48:10;7.50;;;4.97;;
5507;SDS011;2776;51.046;6.772;2023-10-09T05:50:55;7.17;;;5.03;;
5507;SDS011;2776;51.046;6.772;2023-10-09T05:53:37;8.53;;;4.87;;
5507;SDS011;2776;51.046;6.772;2023-10-09T05:56:18;7.00;;;4.93;;
5507;SDS011;2776;51.046;6.772;2023-10-09T05:59:02;5.83;;;4.63;;
5507;SDS011;2776;51.046;6.772;2023-10-09T06:01:46;7.63;;;5.10;;
5507;SDS011;2776;51.046;6.772;2023-10-09T06:04:32;7.67;;;4.27;;
5507;SDS011;2776;51.046;6.772;2023-10-09T06:07:14;7.67;;;5.20;;
5507;SDS011;2776;51.046;6.772;2023-10-09T06:09:48;7.63;;;5.03;;
5507;SDS011;2776;51.046;6.772;2023-10-09T06:12:18;9.23;;;5.17;;
5507;SDS011;2776;51.046;6.772;2023-10-09T06:15:14;8.17;;;5.13;;
5507;SDS011;2776;51.046;6.772;2023-10-09T06:18:11;6.17;;;4.50;;
5507;SDS011;2776;51.046;6.772;2023-10-09T06:20:58;7.03;;;5.07;;
5507;SDS011;2776;51.046;6.772;2023-10-09T06:23:48;7.70;;;5.20;;
5507;SDS011;2776;51.046;6.772;2023-10-09T06:26:39;9.20;;;5.03;;
5507;SDS011;2776;51.046;6.772;2023-10-09T06:29:16;8.23;;;5.83;;
5507;SDS011;2776;51.046;6.772;2023-10-09T06:31:58;12.03;;;5.20;;
5507;SDS011;2776;51.046;6.772;2023-10-09T06:34:42;9.47;;;5.77;;
5507;SDS011;2776;51.046;6.772;2023-10-09T06:37:11;6.63;;;5.10;;
5507;SDS011;2776;51.046;6.772;2023-10-09T06:39:59;7.80;;;4.93;;
5507;SDS011;2776;51.046;6.772;2023-10-09T06:42:55;9.50;;;5.17;;
5507;SDS011;2776;51.046;6.772;2023-10-09T06:45:22;8.77;;;5.17;;
5507;SDS011;2776;51.046;6.772;2023-10-09T06:48:08;8.60;;;4.93;;
5507;SDS011;2776;51.046;6.772;2023-10-09T06:50:55;7.27;;;4.77;;
5507;SDS011;2776;51.046;6.772;2023-10-09T06:53:30;9.27;;;5.03;;
5507;SDS011;2776;51.046;6.772;2023-10-09T06:56:10;8.23;;;4.75;;
5507;SDS011;2776;51.046;6.772;2023-10-09T06:58:48;9.10;;;4.93;;
5507;SDS011;2776;51.046;6.772;2023-10-09T07:01:13;5.93;;;4.43;;
5507;SDS011;2776;51.046;6.772;2023-10-09T07:03:53;7.93;;;4.70;;
5507;SDS011;2776;51.046;6.772;2023-10-09T07:06:25;6.38;;;4.10;;
5507;SDS011;2776;51.046;6.772;2023-10-09T07:09:07;8.65;;;4.68;;
5507;SDS011;2776;51.046;6.772;2023-10-09T07:11:44;6.85;;;4.50;;
5507;SDS011;2776;51.046;6.772;2023-10-09T07:14:34;8.77;;;5.50;;
5507;SDS011;2776;51.046;6.772;2023-10-09T07:17:19;9.02;;;5.07;;
5507;SDS011;2776;51.046;6.772;2023-10-09T07:19:52;6.53;;;4.18;;
5507;SDS011;2776;51.046;6.772;2023-10-09T07:22:42;7.43;;;5.22;;
5507;SDS011;2776;51.046;6.772;2023-10-09T07:25:39;6.85;;;5.05;;
5507;SDS011;2776;51.046;6.772;2023-10-09T07:28:08;8.25;;;4.65;;
5507;SDS011;2776;51.046;6.772;2023-10-09T07:30:54;7.38;;;4.43;;
5507;SDS011;2776;51.046;6.772;2023-10-09T07:33:23;7.07;;;5.15;;
5507;SDS011;2776;51.046;6.772;2023-10-09T07:36:00;6.85;;;4.93;;
5507;SDS011;2776;51.046;6.772;2023-10-09T07:38:31;7.90;;;4.75;;
5507;SDS011;2776;51.046;6.772;2023-10-09T07:41:02;9.88;;;4.97;;
5507;SDS011;2776;51.046;6.772;2023-10-09T07:43:43;7.45;;;5.28;;
5507;SDS011;2776;51.046;6.772;2023-10-09T07:46:11;10.40;;;4.63;;
5507;SDS011;2776;51.046;6.772;2023-10-09T07:48:59;8.68;;;4.85;;
5507;SDS011;2776;51.046;6.772;2023-10-09T07:51:25;10.70;;;6.63;;
5507;SDS011;2776;51.046;6.772;2023-10-09T07:53:56;9.05;;;4.55;;
5507;SDS011;2776;51.046;6.772;2023-10-09T07:56:33;10.05;;;5.15;;
5507;SDS011;2776;51.046;6.772;2023-10-09T07:59:03;9.27;;;5.25;;
5507;SDS011;2776;51.046;6.772;2023-10-09T08:01:35;6.80;;;4.93;;
5507;SDS011;2776;51.046;6.772;2023-10-09T08:04:03;8.48;;;5.85;;
5507;SDS011;2776;51.046;6.772;2023-10-09T08:06:36;8.63;;;5.13;;
5507;SDS011;2776;51.046;6.772;2023-10-09T08:09:07;8.38;;;4.78;;
5507;SDS011;2776;51.046;6.772;2023-10-09T08:12:04;11.85;;;5.45;;
5507;SDS011;2776;51.046;6.772;2023-10-09T08:15:01;13.35;;;5.75;;
5507;SDS011;2776;51.046;6.772;2023-10-09T08:17:46;9.25;;;5.40;;
5507;SDS011;2776;51.046;6.772;2023-10-09T08:20:16;10.93;;;5.68;;
5507;SDS011;2776;51.046;6.772;2023-10-09T08:22:42;10.82;;;5.25;;
5507;SDS011;2776;51.046;6.772;2023-10-09T08:25:15;9.18;;;6.07;;
5507;SDS011;2776;51.046;6.772;2023-10-09T08:27:53;11.23;;;5.60;;
5507;SDS011;2776;51.046;6.772;2023-10-09T08:30:22;10.98;;;6.18;;
5507;SDS011;2776;51.046;6.772;2023-10-09T08:33:06;11.85;;;5.53;;
5507;SDS011;2776;51.046;6.772;2023-10-09T08:35:46;10.18;;;5.38;;
5507;SDS011;2776;51.046;6.772;2023-10-09T08:38:14;10.18;;;6.15;;
5507;SDS011;2776;51.046;6.772;2023-10-09T08:40:42;9.27;;;5.45;;
5507;SDS011;2776;51.046;6.772;2023-10-09T08:43:13;10.05;;;5.60;;
5507;SDS011;2776;51.046;6.772;2023-10-09T08:45:44;9.05;;;5.55;;
5507;SDS011;2776;51.046;6.772;2023-10-09T08:48:12;9.48;;;5.53;;
5507;SDS011;2776;51.046;6.772;2023-10-09T08:50:41;10.15;;;5.05;;
5507;SDS011;2776;51.046;6.772;2023-10-09T08:53:09;8.15;;;5.00;;
5507;SDS011;2776;51.046;6.772;2023-10-09T08:55:36;10.40;;;5.35;;
5507;SDS011;2776;51.046;6.772;2023-10-09T08:58:04;7.78;;;5.07;;
5507;SDS011;2776;51.046;6.772;2023-10-09T09:00:36;9.55;;;5.15;;
5507;SDS011;2776;51.046;6.772;2023-10-09T09:03:08;11.85;;;5.40;;
5507;SDS011;2776;51.046;6.772;2023-10-09T09:05:35;10.75;;;5.20;;
5507;SDS011;2776;51.046;6.772;2023-10-09T09:08:02;8.82;;;5.00;;
5507;SDS011;2776;51.046;6.772;2023-10-09T09:10:29;8.65;;;5.00;;
5507;SDS011;2776;51.046;6.772;2023-10-09T09:13:00;8.55;;;5.43;;
5507;SDS011;2776;51.046;6.772;2023-10-09T09:15:28;8.48;;;5.20;;
5507;SDS011;2776;51.046;6.772;2023-10-09T09:18:04;9.68;;;5.78;;
5507;SDS011;2776;51.046;6.772;2023-10-09T09:20:34;6.97;;;5.35;;
5507;SDS011;2776;51.046;6.772;2023-10-09T09:23:05;10.43;;;5.82;;
5507;SDS011;2776;51.046;6.772;2023-10-09T09:25:41;6.35;;;4.53;;
5507;SDS011;2776;51.046;6.772;2023-10-09T09:28:13;10.52;;;6.10;;
5507;SDS011;2776;51.046;6.772;2023-10-09T09:30:45;11.20;;;5.80;;
5507;SDS011;2776;51.046;6.772;2023-10-09T09:33:22;9.20;;;5.50;;
5507;SDS011;2776;51.046;6.772;2023-10-09T09:35:58;11.10;;;5.25;;
5507;SDS011;2776;51.046;6.772;2023-10-09T09:38:28;10.00;;;5.28;;
5507;SDS011;2776;51.046;6.772;2023-10-09T09:41:06;9.75;;;4.85;;
5507;SDS011;2776;51.046;6.772;2023-10-09T09:43:34;11.73;;;5.32;;
5507;SDS011;2776;51.046;6.772;2023-10-09T09:46:05;7.97;;;5.47;;
5507;SDS011;2776;51.046;6.772;2023-10-09T09:48:38;8.25;;;5.47;;
5507;SDS011;2776;51.046;6.772;2023-10-09T09:51:09;9.05;;;4.38;;
5507;SDS011;2776;51.046;6.772;2023-10-09T09:53:38;8.10;;;4.90;;
5507;SDS011;2776;51.046;6.772;2023-10-09T09:56:05;9.43;;;5.22;;
5507;SDS011;2776;51.046;6.772;2023-10-09T09:58:38;7.88;;;4.90;;
5507;SDS011;2776;51.046;6.772;2023-10-09T10:01:09;7.28;;;4.57;;
5507;SDS011;2776;51.046;6.772;2023-10-09T10:03:44;6.20;;;4.03;;
5507;SDS011;2776;51.046;6.772;2023-10-09T10:06:14;7.45;;;3.58;;
5507;SDS011;2776;51.046;6.772;2023-10-09T10:08:44;5.88;;;4.00;;
5507;SDS011;2776;51.046;6.772;2023-10-09T10:14:10;5.68;;;3.85;;
5507;SDS011;2776;51.046;6.772;2023-10-09T10:17:02;6.07;;;3.70;;
5507;SDS011;2776;51.046;6.772;2023-10-09T10:22:45;5.13;;;3.63;;
5507;SDS011;2776;51.046;6.772;2023-10-09T10:28:16;6.25;;;3.72;;
5507;SDS011;2776;51.046;6.772;2023-10-09T10:30:53;6.50;;;2.92;;
5507;SDS011;2776;51.046;6.772;2023-10-09T10:33:20;6.20;;;4.10;;
5507;SDS011;2776;51.046;6.772;2023-10-09T10:35:51;5.93;;;3.60;;
5507;SDS011;2776;51.046;6.772;2023-10-09T10:38:23;5.78;;;3.95;;
5507;SDS011;2776;51.046;6.772;2023-10-09T10:41:11;5.78;;;3.13;;
5507;SDS011;2776;51.046;6.772;2023-10-09T10:43:41;5.80;;;3.28;;
5507;SDS011;2776;51.046;6.772;2023-10-09T10:46:22;7.65;;;3.78;;
5507;SDS011;2776;51.046;6.772;2023-10-09T10:49:04;5.32;;;3.65;;
5507;SDS011;2776;51.046;6.772;2023-10-09T10:51:46;4.45;;;3.10;;
5507;SDS011;2776;51.046;6.772;2023-10-09T10:54:20;6.90;;;3.47;;
5507;SDS011;2776;51.046;6.772;2023-10-09T10:57:12;6.40;;;3.60;;
5507;SDS011;2776;51.046;6.772;2023-10-09T10:59:44;7.25;;;3.25;;
5507;SDS011;2776;51.046;6.772;2023-10-09T11:02:14;6.57;;;3.10;;
5507;SDS011;2776;51.046;6.772;2023-10-09T11:04:47;5.18;;;3.20;;
5507;SDS011;2776;51.046;6.772;2023-10-09T11:07:22;5.50;;;3.20;;
5507;SDS011;2776;51.046;6.772;2023-10-09T11:09:53;6.20;;;3.40;;
5507;SDS011;2776;51.046;6.772;2023-10-09T11:12:43;5.22;;;3.25;;
5507;SDS011;2776;51.046;6.772;2023-10-09T11:15:31;6.07;;;4.13;;
5507;SDS011;2776;51.046;6.772;2023-10-09T11:18:09;10.05;;;4.10;;
5507;SDS011;2776;51.046;6.772;2023-10-09T11:20:45;7.50;;;4.53;;
5507;SDS011;2776;51.046;6.772;2023-10-09T11:23:25;5.20;;;3.95;;
5507;SDS011;2776;51.046;6.772;2023-10-09T11:26:01;4.80;;;4.00;;
5507;SDS011;2776;51.046;6.772;2023-10-09T11:28:46;6.13;;;3.85;;
5507;SDS011;2776;51.046;6.772;2023-10-09T11:31:38;7.18;;;4.00;;
5507;SDS011;2776;51.046;6.772;2023-10-09T11:34:05;9.85;;;5.28;;
5507;SDS011;2776;51.046;6.772;2023-10-09T11:36:48;5.90;;;4.40;;
5507;SDS011;2776;51.046;6.772;2023-10-09T11:39:24;7.20;;;4.80;;
5507;SDS011;2776;51.046;6.772;2023-10-09T11:42:15;5.00;;;4.35;;
5507;SDS011;2776;51.046;6.772;2023-10-09T11:45:00;8.13;;;4.70;;
5507;SDS011;2776;51.046;6.772;2023-10-09T11:47:33;8.65;;;4.80;;
5507;SDS011;2776;51.046;6.772;2023-10-09T11:50:01;8.95;;;4.22;;
5507;SDS011;2776;51.046;6.772;2023-10-09T11:52:54;7.63;;;4.40;;
5507;SDS011;2776;51.046;6.772;2023-10-09T11:55:41;6.45;;;4.35;;
5507;SDS011;2776;51.046;6.772;2023-10-09T11:58:07;8.95;;;4.90;;
5507;SDS011;2776;51.046;6.772;2023-10-09T12:00:34;7.32;;;4.47;;
5507;SDS011;2776;51.046;6.772;2023-10-09T12:03:10;11.75;;;4.32;;
5507;SDS011;2776;51.046;6.772;2023-10-09T12:05:38;7.03;;;4.38;;
5507;SDS011;2776;51.046;6.772;2023-10-09T12:08:07;9.63;;;4.80;;
5507;SDS011;2776;51.046;6.772;2023-10-09T12:10:34;10.60;;;4.30;;
5507;SDS011;2776;51.046;6.772;2023-10-09T12:13:05;9.68;;;5.07;;
5507;SDS011;2776;51.046;6.772;2023-10-09T12:15:32;6.15;;;4.10;;
5507;SDS011;2776;51.046;6.772;2023-10-09T12:18:03;10.23;;;4.90;;
5507;SDS011;2776;51.046;6.772;2023-10-09T12:20:34;8.90;;;5.13;;
5507;SDS011;2776;51.046;6.772;2023-10-09T12:23:02;7.78;;;4.70;;
5507;SDS011;2776;51.046;6.772;2023-10-09T12:25:31;7.47;;;5.47;;
5507;SDS011;2776;51.046;6.772;2023-10-09T12:27:58;9.25;;;5.22;;
5507;SDS011;2776;51.046;6.772;2023-10-09T12:30:27;8.60;;;5.30;;
5507;SDS011;2776;51.046;6.772;2023-10-09T12:32:54;10.13;;;5.68;;
5507;SDS011;2776;51.046;6.772;2023-10-09T12:35:22;10.68;;;6.22;;
5507;SDS011;2776;51.046;6.772;2023-10-09T12:37:50;7.32;;;5.40;;
5507;SDS011;2776;51.046;6.772;2023-10-09T12:40:17;9.82;;;5.10;;
5507;SDS011;2776;51.046;6.772;2023-10-09T12:42:49;8.60;;;5.60;;
5507;SDS011;2776;51.046;6.772;2023-10-09T12:45:17;11.70;;;5.57;;
5507;SDS011;2776;51.046;6.772;2023-10-09T12:47:52;11.52;;;5.80;;
5507;SDS011;2776;51.046;6.772;2023-10-09T12:50:23;7.35;;;5.38;;
5507;SDS011;2776;51.046;6.772;2023-10-09T12:52:54;7.35;;;5.43;;
5507;SDS011;2776;51.046;6.772;2023-10-09T12:55:21;8.45;;;5.35;;
5507;SDS011;2776;51.046;6.772;2023-10-09T12:57:56;10.02;;;5.15;;
5507;SDS011;2776;51.046;6.772;2023-10-09T13:00:25;10.10;;;4.90;;
5507;SDS011;2776;51.046;6.772;2023-10-09T13:02:53;8.23;;;4.60;;
5507;SDS011;2776;51.046;6.772;2023-10-09T13:05:20;8.10;;;4.45;;
5507;SDS011;2776;51.046;6.772;2023-10-09T13:07:51;6.22;;;4.85;;
5507;SDS011;2776;51.046;6.772;2023-10-09T13:10:18;7.65;;;4.63;;
5507;SDS011;2776;51.046;6.772;2023-10-09T13:12:45;7.70;;;4.45;;
5507;SDS011;2776;51.046;6.772;2023-10-09T13:15:20;9.55;;;4.93;;
5507;SDS011;2776;51.046;6.772;2023-10-09T13:17:47;7.97;;;4.70;;
5507;SDS011;2776;51.046;6.772;2023-10-09T13:20:15;8.00;;;4.70;;
5507;SDS011;2776;51.046;6.772;2023-10-09T13:22:42;7.68;;;5.03;;
5507;SDS011;2776;51.046;6.772;2023-10-09T13:25:11;5.95;;;4.50;;
5507;SDS011;2776;51.046;6.772;2023-10-09T13:27:41;10.68;;;4.70;;
5507;SDS011;2776;51.046;6.772;2023-10-09T13:30:13;6.20;;;3.90;;
5507;SDS011;2776;51.046;6.772;2023-10-09T13:32:46;6.07;;;3.97;;
5507;SDS011;2776;51.046;6.772;2023-10-09T13:35:16;6.35;;;3.78;;
5507;SDS011;2776;51.046;6.772;2023-10-09T13:37:43;6.43;;;4.63;;
5507;SDS011;2776;51.046;6.772;2023-10-09T13:40:19;10.07;;;4.40;;
5507;SDS011;2776;51.046;6.772;2023-10-09T13:42:51;6.80;;;4.28;;
5507;SDS011;2776;51.046;6.772;2023-10-09T13:45:19;5.05;;;3.70;;
5507;SDS011;2776;51.046;6.772;2023-10-09T13:47:52;6.43;;;3.90;;
5507;SDS011;2776;51.046;6.772;2023-10-09T13:50:22;8.07;;;4.13;;
5507;SDS011;2776;51.046;6.772;2023-10-09T13:52:54;7.40;;;4.07;;
5507;SDS011;2776;51.046;6.772;2023-10-09T13:55:21;7.53;;;4.03;;
5507;SDS011;2776;51.046;6.772;2023-10-09T13:57:49;8.30;;;4.35;;
5507;SDS011;2776;51.046;6.772;2023-10-09T14:00:15;6.63;;;3.75;;
5507;SDS011;2776;51.046;6.772;2023-10-09T14:02:57;7.80;;;3.92;;
5507;SDS011;2776;51.046;6.772;2023-10-09T14:05:27;10.20;;;4.60;;
5507;SDS011;2776;51.046;6.772;2023-10-09T14:07:54;12.18;;;4.63;;
5507;SDS011;2776;51.046;6.772;2023-10-09T14:10:25;6.93;;;4.50;;
5507;SDS011;2776;51.046;6.772;2023-10-09T14:12:55;6.50;;;4.80;;
5507;SDS011;2776;51.046;6.772;2023-10-09T14:15:22;10.27;;;4.90;;
5507;SDS011;2776;51.046;6.772;2023-10-09T14:17:49;10.05;;;5.10;;
5507;SDS011;2776;51.046;6.772;2023-10-09T14:20:20;9.75;;;5.10;;
5507;SDS011;2776;51.046;6.772;2023-10-09T14:22:58;7.28;;;4.68;;
5507;SDS011;2776;51.046;6.772;2023-10-09T14:25:31;6.03;;;4.25;;
5507;SDS011;2776;51.046;6.772;2023-10-09T14:27:58;11.23;;;5.95;;
5507;SDS011;2776;51.046;6.772;2023-10-09T14:30:25;7.38;;;4.80;;
5507;SDS011;2776;51.046;6.772;2023-10-09T14:32:58;9.23;;;4.43;;
5507;SDS011;2776;51.046;6.772;2023-10-09T14:35:26;7.80;;;4.32;;
5507;SDS011;2776;51.046;6.772;2023-10-09T14:37:55;8.05;;;4.70;;
5507;SDS011;2776;51.046;6.772;2023-10-09T14:40:23;8.65;;;4.75;;
5507;SDS011;2776;51.046;6.772;2023-10-09T14:42:56;8.70;;;4.38;;
5507;SDS011;2776;51.046;6.772;2023-10-09T14:45:23;9.57;;;5.32;;
5507;SDS011;2776;51.046;6.772;2023-10-09T14:47:51;6.22;;;4.22;;
5507;SDS011;2776;51.046;6.772;2023-10-09T14:50:19;5.00;;;4.40;;
5507;SDS011;2776;51.046;6.772;2023-10-09T14:52:47;5.70;;;4.22;;
5507;SDS011;2776;51.046;6.772;2023-10-09T14:55:15;9.43;;;4.85;;
5507;SDS011;2776;51.046;6.772;2023-10-09T14:57:47;5.15;;;3.78;;
5507;SDS011;2776;51.046;6.772;2023-10-09T15:00:15;7.80;;;4.80;;
5507;SDS011;2776;51.046;6.772;2023-10-09T15:02:48;7.78;;;4.55;;
5507;SDS011;2776;51.046;6.772;2023-10-09T15:05:15;7.93;;;5.00;;
5507;SDS011;2776;51.046;6.772;2023-10-09T15:07:42;8.43;;;4.97;;
5507;SDS011;2776;51.046;6.772;2023-10-09T15:10:10;9.23;;;4.85;;
5507;SDS011;2776;51.046;6.772;2023-10-09T15:12:40;9.35;;;5.07;;
5507;SDS011;2776;51.046;6.772;2023-10-09T15:15:09;6.57;;;4.80;;
5507;SDS011;2776;51.046;6.772;2023-10-09T15:17:38;7.43;;;5.05;;
5507;SDS011;2776;51.046;6.772;2023-10-09T15:20:09;7.75;;;4.55;;
5507;SDS011;2776;51.046;6.772;2023-10-09T15:22:38;10.32;;;4.50;;
5507;SDS011;2776;51.046;6.772;2023-10-09T15:25:06;8.35;;;4.85;;
5507;SDS011;2776;51.046;6.772;2023-10-09T15:27:33;9.30;;;4.72;;
5507;SDS011;2776;51.046;6.772;2023-10-09T15:29:59;8.75;;;4.97;;
5507;SDS011;2776;51.046;6.772;2023-10-09T15:32:27;6.75;;;4.13;;
5507;SDS011;2776;51.046;6.772;2023-10-09T15:34:55;8.90;;;4.18;;
5507;SDS011;2776;51.046;6.772;2023-10-09T15:37:22;6.55;;;4.55;;
5507;SDS011;2776;51.046;6.772;2023-10-09T15:39:48;8.07;;;4.35;;
5507;SDS011;2776;51.046;6.772;2023-10-09T15:42:15;5.07;;;4.03;;
5507;SDS011;2776;51.046;6.772;2023-10-09T15:44:42;11.60;;;4.70;;
5507;SDS011;2776;51.046;6.772;2023-10-09T15:47:12;7.55;;;4.82;;
5507;SDS011;2776;51.046;6.772;2023-10-09T15:49:42;10.02;;;5.22;;
5507;SDS011;2776;51.046;6.772;2023-10-09T15:52:09;9.32;;;4.47;;
5507;SDS011;2776;51.046;6.772;2023-10-09T15:54:39;9.48;;;4.80;;
5507;SDS011;2776;51.046;6.772;2023-10-09T15:57:08;9.70;;;4.53;;